createdAt,value
2018-10-09T00:01:57.195Z,17.20
2018-10-09T00:04:43.939Z,15.07
2018-10-09T00:07:33.506Z,11.70
2018-10-09T00:10:29.078Z,19.03
2018-10-09T00:13:13.626Z,12.60
2018-10-09T00:15:56.055Z,16.20
2018-10-09T00:18:53.167Z,17.17
2018-10-09T00:30:53.136Z,16.60
2018-10-09T00:33:30.363Z,22.40
2018-10-09T00:36:35.575Z,12.83
2018-10-09T00:39:22.505Z,15.00
2018-10-09T00:42:03.858Z,18.33
2018-10-09T00:44:46.254Z,18.37
2018-10-09T00:50:22.340Z,17.07
2018-10-09T00:53:05.875Z,15.47
2018-10-09T00:59:10.721Z,19.10
2018-10-09T01:02:09.514Z,17.40
2018-10-09T01:04:55.545Z,13.20
2018-10-09T01:10:50.328Z,22.30
2018-10-09T01:13:33.842Z,13.40
2018-10-09T01:16:30.161Z,15.68
2018-10-09T01:19:18.318Z,19.63
2018-10-09T01:22:01.713Z,19.90
2018-10-09T01:24:45.691Z,15.50
2018-10-09T01:27:45.872Z,20.60
2018-10-09T01:30:34.591Z,14.23
2018-10-09T01:33:18.360Z,16.57
2018-10-09T01:36:00.521Z,15.90
2018-10-09T01:38:56.742Z,13.47
2018-10-09T01:41:50.399Z,18.13
2018-10-09T01:44:50.848Z,20.43
2018-10-09T01:47:30.835Z,26.87
2018-10-09T01:50:16.975Z,14.93
2018-10-09T01:53:19.725Z,13.83
2018-10-09T01:55:59.119Z,19.17
2018-10-09T01:58:54.513Z,12.80
2018-10-09T02:01:45.627Z,14.70
2018-10-09T02:04:33.467Z,22.35
2018-10-09T02:07:19.908Z,16.03
2018-10-09T02:10:20.449Z,12.23
2018-10-09T02:13:08.797Z,23.73
2018-10-09T02:15:58.958Z,15.93
2018-10-09T02:18:38.820Z,16.80
2018-10-09T02:21:16.443Z,16.80
2018-10-09T02:26:52.569Z,18.00
2018-10-09T02:29:37.294Z,12.33
2018-10-09T02:32:22.294Z,13.43
2018-10-09T02:37:51.830Z,16.33
2018-10-09T02:40:33.930Z,13.83
2018-10-09T02:43:40.048Z,12.70
2018-10-09T02:46:25.860Z,12.57
2018-10-09T02:49:11.293Z,16.27
2018-10-09T02:52:04.690Z,18.30
2018-10-09T02:57:37.136Z,24.60
2018-10-09T03:00:26.171Z,17.07
2018-10-09T03:03:15.200Z,21.43
2018-10-09T03:05:54.460Z,20.53
2018-10-09T03:08:41.920Z,17.00
2018-10-09T03:11:23.177Z,17.83
2018-10-09T03:14:08.191Z,23.40
2018-10-09T03:16:50.237Z,24.37
2018-10-09T03:19:31.985Z,24.97
2018-10-09T03:22:20.904Z,18.10
2018-10-09T03:25:14.676Z,18.97
2018-10-09T03:31:13.301Z,24.43
2018-10-09T03:33:52.657Z,20.10
2018-10-09T03:39:32.187Z,17.53
2018-10-09T03:42:44.601Z,22.60
2018-10-09T03:45:34.466Z,25.07
2018-10-09T03:48:40.931Z,21.60
2018-10-09T03:51:27.871Z,26.10
2018-10-09T03:54:17.884Z,22.43
2018-10-09T03:57:05.373Z,22.83
2018-10-09T03:59:45.613Z,22.67
2018-10-09T04:02:29.307Z,21.33
2018-10-09T04:05:18.651Z,24.43
2018-10-09T04:08:12.082Z,18.83
2018-10-09T04:11:00.271Z,26.23
2018-10-09T04:13:38.100Z,19.13
2018-10-09T04:16:19.191Z,24.27
2018-10-09T04:19:08.103Z,17.63
2018-10-09T04:24:51.914Z,30.70
2018-10-09T04:30:27.180Z,19.53
2018-10-09T04:36:03.866Z,21.47
2018-10-09T04:38:51.324Z,20.13
2018-10-09T04:41:37.776Z,23.60
2018-10-09T04:50:26.193Z,20.80
2018-10-09T04:53:14.100Z,23.47
2018-10-09T04:55:54.697Z,23.20
2018-10-09T04:58:44.759Z,20.57
2018-10-09T05:01:53.524Z,23.77
2018-10-09T05:07:27.787Z,29.40
2018-10-09T05:10:27.217Z,22.67
2018-10-09T05:13:23.889Z,22.30
2018-10-09T05:21:26.075Z,23.00
2018-10-09T05:28:59.171Z,23.73
2018-10-09T05:31:40.174Z,31.00
2018-10-09T05:34:43.155Z,25.60
2018-10-09T05:47:52.485Z,22.77
2018-10-09T05:53:23.013Z,28.40
2018-10-09T05:56:17.732Z,27.07
2018-10-09T05:59:19.724Z,25.97
2018-10-09T06:02:14.514Z,30.27
2018-10-09T06:05:14.862Z,24.10
2018-10-09T06:14:47.045Z,21.47
2018-10-09T06:17:39.021Z,28.97
2018-10-09T06:26:59.423Z,25.72
2018-10-09T06:29:38.638Z,27.00
2018-10-09T06:32:33.984Z,27.40
2018-10-09T06:35:15.959Z,26.90
2018-10-09T06:38:00.879Z,29.83
2018-10-09T06:42:40.395Z,38.30
2018-10-09T06:45:33.133Z,30.13
2018-10-09T06:48:19.681Z,21.27
2018-10-09T06:51:05.590Z,23.73
2018-10-09T06:56:44.614Z,21.70
2018-10-09T06:59:27.162Z,38.27
2018-10-09T07:08:23.209Z,36.13
2018-10-09T07:11:23.237Z,22.33
2018-10-09T07:14:13.776Z,32.83
2018-10-09T07:23:33.254Z,20.63
2018-10-09T07:26:16.934Z,22.52
2018-10-09T07:29:06.402Z,19.70
2018-10-09T07:31:52.284Z,18.50
2018-10-09T07:37:38.717Z,26.60
2018-10-09T07:43:25.411Z,30.83
2018-10-09T07:54:34.847Z,26.40
2018-10-09T07:57:35.478Z,22.83
2018-10-09T08:03:17.260Z,25.60
2018-10-09T08:06:02.543Z,20.90
2018-10-09T08:08:48.711Z,21.27
2018-10-09T08:18:30.019Z,30.57
2018-10-09T08:21:22.262Z,33.60
2018-10-09T08:24:09.950Z,19.50
2018-10-09T08:26:58.517Z,22.40
2018-10-09T08:29:54.662Z,28.73
2018-10-09T08:33:19.357Z,20.20
2018-10-09T08:36:20.504Z,25.33
2018-10-09T08:39:09.774Z,26.93
2018-10-09T08:42:00.881Z,29.52
2018-10-09T08:51:18.881Z,21.67
2018-10-09T08:54:28.135Z,19.53
2018-10-09T09:08:49.870Z,25.37
2018-10-09T09:28:31.411Z,26.17
2018-10-09T09:31:23.857Z,27.90
2018-10-09T09:34:15.999Z,35.63
2018-10-09T09:42:14.882Z,37.20
2018-10-09T09:45:08.892Z,37.40
2018-10-09T09:48:16.303Z,39.03
2018-10-09T09:51:24.751Z,37.27
2018-10-09T09:57:21.729Z,41.93
2018-10-09T10:15:51.127Z,44.80
2018-10-09T10:30:03.392Z,43.77
2018-10-09T10:32:50.720Z,43.43
2018-10-09T10:35:37.694Z,44.87
2018-10-09T10:38:21.783Z,48.70
2018-10-09T10:41:55.551Z,45.17
2018-10-09T10:44:47.179Z,36.13
2018-10-09T10:47:40.634Z,45.03
2018-10-09T10:50:34.060Z,43.93
2018-10-09T10:53:27.000Z,48.67
2018-10-09T10:56:12.564Z,47.27
2018-10-09T11:05:36.121Z,42.67
2018-10-09T11:08:25.832Z,45.00
2018-10-09T11:11:40.650Z,40.17
2018-10-09T11:14:37.347Z,39.03
2018-10-09T11:17:27.205Z,39.13
2018-10-09T11:20:38.581Z,37.00
2018-10-09T11:29:45.143Z,40.50
2018-10-09T11:32:41.967Z,35.87
2018-10-09T11:35:29.285Z,29.53
2018-10-09T11:38:20.604Z,35.70
2018-10-09T11:41:35.530Z,34.77
2018-10-09T11:44:32.991Z,33.80
2018-10-09T11:53:37.581Z,31.33
2018-10-09T11:56:28.327Z,30.23
2018-10-09T11:59:24.503Z,35.70
2018-10-09T12:18:54.862Z,33.30
2018-10-09T12:21:39.273Z,33.80
2018-10-09T12:24:23.014Z,33.07
2018-10-09T12:27:16.727Z,30.70
2018-10-09T12:30:25.694Z,43.37
2018-10-09T12:37:57.472Z,29.93
2018-10-09T12:56:18.994Z,27.97
2018-10-09T13:09:31.213Z,34.57
2018-10-09T13:12:40.916Z,35.50
2018-10-09T13:15:44.294Z,25.97
2018-10-09T13:27:14.759Z,29.93
2018-10-09T13:30:25.047Z,25.20
2018-10-09T13:33:14.893Z,23.47
2018-10-09T13:36:07.073Z,24.67
2018-10-09T13:38:51.905Z,34.77
2018-10-09T13:41:51.815Z,23.37
2018-10-09T13:45:07.089Z,23.53
2018-10-09T13:48:26.733Z,15.60
2018-10-09T13:54:15.601Z,21.93
2018-10-09T13:57:07.458Z,25.63
2018-10-09T13:59:43.922Z,31.70
2018-10-09T14:02:35.063Z,21.33
2018-10-09T14:05:33.084Z,20.00
2018-10-09T14:08:14.606Z,18.53
2018-10-09T14:11:11.599Z,13.57
2018-10-09T14:13:56.743Z,16.97
2018-10-09T14:17:00.956Z,20.70
2018-10-09T14:19:55.165Z,29.00
2018-10-09T14:22:57.481Z,17.43
2018-10-09T14:25:56.764Z,18.87
2018-10-09T14:29:04.603Z,19.60
2018-10-09T14:34:55.830Z,20.70
2018-10-09T14:37:53.228Z,23.23
2018-10-09T14:41:03.504Z,26.67
2018-10-09T14:43:50.957Z,21.70
2018-10-09T14:46:39.993Z,23.90
2018-10-09T14:49:27.129Z,19.03
2018-10-09T14:52:25.476Z,21.33
2018-10-09T14:55:16.793Z,20.43
2018-10-09T15:14:23.964Z,21.83
2018-10-09T15:20:44.447Z,21.27
2018-10-09T16:36:12.797Z,20.57
2018-10-09T16:57:46.090Z,22.03
2018-10-09T17:48:43.017Z,16.27
2018-10-09T18:02:18.620Z,30.70
2018-10-09T18:09:12.082Z,20.40
2018-10-09T18:24:07.695Z,25.10
2018-10-09T18:43:09.048Z,22.90
2018-10-09T18:46:15.659Z,27.20
2018-10-09T19:01:21.536Z,19.60
2018-10-09T19:06:30.636Z,16.37
2018-10-09T19:09:16.842Z,20.63
2018-10-09T19:58:22.073Z,29.18
2018-10-09T20:16:09.423Z,24.03
2018-10-09T20:18:58.393Z,27.70
2018-10-09T20:32:58.992Z,26.37
2018-10-09T22:26:17.409Z,25.75
2018-10-09T22:29:04.019Z,23.50
2018-10-09T22:34:49.449Z,25.13
2018-10-09T22:37:39.606Z,28.40
2018-10-09T22:40:21.936Z,31.97
2018-10-09T22:43:06.741Z,26.83
2018-10-09T22:45:56.913Z,27.10
2018-10-09T22:51:32.884Z,28.03
2018-10-09T22:54:20.629Z,27.13
2018-10-09T22:57:23.066Z,29.50
2018-10-09T23:00:36.360Z,31.67
2018-10-09T23:03:23.064Z,27.57
2018-10-09T23:06:23.475Z,32.23
2018-10-09T23:09:15.879Z,35.03
2018-10-09T23:12:00.379Z,29.10
2018-10-09T23:15:10.853Z,33.53
2018-10-09T23:18:05.126Z,33.17
2018-10-09T23:20:59.300Z,23.30
2018-10-09T23:23:40.402Z,23.70
2018-10-09T23:26:40.466Z,27.37
2018-10-09T23:29:31.056Z,27.20
2018-10-09T23:34:54.094Z,26.53
2018-10-09T23:40:29.046Z,30.27
2018-10-09T23:43:27.093Z,28.70
2018-10-09T23:46:14.305Z,26.60
2018-10-09T23:48:49.774Z,26.33
2018-10-09T23:51:34.037Z,27.10
2018-10-09T23:54:22.688Z,27.33
2018-10-09T23:57:05.807Z,25.10
2018-10-09T23:59:51.862Z,26.63
